createdAt,value
2023-04-26T00:07:50.201Z,9.17
2023-04-26T00:17:59.008Z,7.88
2023-04-26T00:28:08.303Z,7.84
2023-04-26T00:38:17.360Z,7.8
2023-04-26T00:48:26.421Z,8.66
2023-04-26T00:58:37.870Z,6.53
2023-04-26T01:08:36.703Z,6.8
2023-04-26T01:18:45.830Z,7.42
2023-04-26T01:28:54.970Z,6.85
2023-04-26T01:39:03.753Z,6.6
2023-04-26T01:49:12.921Z,8.09
2023-04-26T01:59:23.293Z,7.95
2023-04-26T02:09:22.333Z,8.27
2023-04-26T02:19:31.245Z,7.77
2023-04-26T02:29:44.081Z,8.84
2023-04-26T02:39:47.728Z,8.96
2023-04-26T02:50:09.312Z,8.95
2023-04-26T03:00:00.189Z,8.66
2023-04-26T03:09:59.225Z,7.92
2023-04-26T03:20:07.770Z,8.01
2023-04-26T03:30:16.652Z,7.82
2023-04-26T03:40:25.913Z,8.33
2023-04-26T03:50:35.498Z,9.73
2023-04-26T04:00:44.390Z,10.3
2023-04-26T04:10:53.938Z,9.3
2023-04-26T04:21:04.631Z,7.16
2023-04-26T04:31:05.445Z,7.87
2023-04-26T04:41:04.791Z,10.46
2023-04-26T04:51:18.777Z,10.38
2023-04-26T05:01:20.437Z,9.78
2023-04-26T05:11:19.600Z,9.64
2023-04-26T05:21:33.368Z,10.99
2023-04-26T05:31:32.281Z,9.15
2023-04-26T05:41:41.224Z,10
2023-04-26T05:51:51.227Z,7.83
2023-04-26T06:01:50.841Z,9.14
2023-04-26T06:11:59.836Z,9.54
2023-04-26T06:22:10.259Z,10.68
2023-04-26T06:32:09.372Z,10.58
2023-04-26T06:42:18.389Z,12.64
2023-04-26T06:52:27.547Z,11.5
2023-04-26T07:02:39.048Z,9.96
2023-04-26T07:12:38.955Z,6
2023-04-26T07:22:50.898Z,6.54
2023-04-26T07:32:50.550Z,5.23
2023-04-26T07:43:02.448Z,5.24
2023-04-26T07:53:01.568Z,4.25
2023-04-26T08:03:12.436Z,2.4
2023-04-26T08:13:12.392Z,1.48
2023-04-26T08:23:51.957Z,1.41
2023-04-26T08:34:27.562Z,1.34
2023-04-26T08:44:34.782Z,1.65
2023-04-26T08:54:29.567Z,1.25
2023-04-26T09:03:42.654Z,1.28
2023-04-26T09:13:45.121Z,1.59
2023-04-26T09:23:51.161Z,1.54
2023-04-26T09:33:52.776Z,1.31
2023-04-26T09:44:02.529Z,1.38
2023-04-26T09:54:22.000Z,1.65
2023-04-26T10:04:13.825Z,1.86
2023-04-26T10:14:19.304Z,1.98
2023-04-26T10:24:19.391Z,2.37
2023-04-26T10:34:19.881Z,2.9
2023-04-26T10:44:20.960Z,3.39
2023-04-26T10:54:23.545Z,2.47
2023-04-26T11:04:45.811Z,2.29
2023-04-26T11:14:26.140Z,2.2
2023-04-26T11:24:28.857Z,2.18
2023-04-26T11:34:27.794Z,2.24
2023-04-26T11:44:36.809Z,2.12
2023-04-26T11:54:45.726Z,2.47
2023-04-26T12:04:56.571Z,2.29
2023-04-26T12:14:55.781Z,2.06
2023-04-26T12:25:06.966Z,1.84
2023-04-26T12:35:05.939Z,1.67
2023-04-26T12:45:18.092Z,1.49
2023-04-26T12:55:25.244Z,1.65
2023-04-26T13:05:23.872Z,1.48
2023-04-26T13:15:32.832Z,1.5
2023-04-26T13:25:44.452Z,1.6
2023-04-26T13:35:47.478Z,1.62
2023-04-26T13:45:52.933Z,1.6
2023-04-26T13:56:01.683Z,1.79
2023-04-26T14:06:02.399Z,1.74
2023-04-26T14:16:10.445Z,1.87
2023-04-26T14:26:19.595Z,2.09
2023-04-26T14:36:28.634Z,1.88
2023-04-26T14:46:42.235Z,2.43
2023-04-26T14:56:45.988Z,1.9
2023-04-26T15:06:45.601Z,2.26
2023-04-26T15:16:56.476Z,2.37
2023-04-26T15:26:56.553Z,2.19
2023-04-26T15:36:55.870Z,1.89
2023-04-26T15:47:07.492Z,1.93
2023-04-26T15:57:09.519Z,2.12
2023-04-26T16:07:08.474Z,2.02
2023-04-26T16:17:18.268Z,1.91
2023-04-26T16:27:31.604Z,1.88
2023-04-26T16:37:31.887Z,3.05
2023-04-26T16:47:34.925Z,1.94
2023-04-26T16:57:35.508Z,2.13
2023-04-26T17:07:34.809Z,2.19
2023-04-26T17:17:44.395Z,2.34
2023-04-26T17:27:53.457Z,2.07
2023-04-26T17:38:04.857Z,2.38
2023-04-26T17:48:04.886Z,2.39
2023-04-26T17:58:13.641Z,2.35
2023-04-26T18:08:22.679Z,2.73
2023-04-26T18:18:31.656Z,2.68
2023-04-26T18:28:42.020Z,2.55
2023-04-26T18:38:41.285Z,2.62
2023-04-26T18:49:16.788Z,2.93
2023-04-26T18:59:04.179Z,2.83
2023-04-26T19:09:05.209Z,2.73
2023-04-26T19:19:06.726Z,2.96
2023-04-26T19:29:06.887Z,2.1
2023-04-26T19:39:29.829Z,2.19
2023-04-26T19:49:22.219Z,1.97
2023-04-26T19:59:23.672Z,2.09
2023-04-26T20:09:41.408Z,1.97
2023-04-26T20:19:33.010Z,1.97
2023-04-26T20:29:32.471Z,2.12
2023-04-26T20:39:41.528Z,1.93
2023-04-26T20:49:51.578Z,2.42
2023-04-26T20:59:52.927Z,2.09
2023-04-26T21:09:51.749Z,2.16
2023-04-26T21:20:01.687Z,2.81
2023-04-26T21:30:10.534Z,5.53
2023-04-26T21:40:23.380Z,3.22
2023-04-26T21:50:22.388Z,2.67
2023-04-26T22:00:32.455Z,1.98
2023-04-26T22:10:33.528Z,2.44
2023-04-26T22:20:33.466Z,1.43
2023-04-26T22:30:42.549Z,1.43
2023-04-26T22:40:52.052Z,1.78
2023-04-26T22:51:01.567Z,1.79
2023-04-26T23:01:11.879Z,1.74
2023-04-26T23:11:21.392Z,1.55
2023-04-26T23:21:20.438Z,1.56
2023-04-26T23:31:29.320Z,1.6
2023-04-26T23:41:38.402Z,1.8
2023-04-26T23:51:47.447Z,2.19
